sensor_id;sensor_type;location;lat;lon;timestamp;P1;durP1;ratioP1;P2;durP2;ratioP2
11837;SDS011;5978;51.020;6.764;2022-12-20T00:00:01;5.10;;;3.33;;
11837;SDS011;5978;51.020;6.764;2022-12-20T00:02:26;4.03;;;3.30;;
11837;SDS011;5978;51.020;6.764;2022-12-20T00:04:52;3.70;;;2.93;;
11837;SDS011;5978;51.020;6.764;2022-12-20T00:07:17;3.70;;;3.00;;
11837;SDS011;5978;51.020;6.764;2022-12-20T00:09:43;4.43;;;2.60;;
11837;SDS011;5978;51.020;6.764;2022-12-20T00:12:08;3.50;;;2.60;;
11837;SDS011;5978;51.020;6.764;2022-12-20T00:14:34;3.80;;;2.53;;
11837;SDS011;5978;51.020;6.764;2022-12-20T00:16:59;3.90;;;2.90;;
11837;SDS011;5978;51.020;6.764;2022-12-20T00:19:25;2.90;;;2.47;;
11837;SDS011;5978;51.020;6.764;2022-12-20T00:21:50;3.53;;;2.70;;
11837;SDS011;5978;51.020;6.764;2022-12-20T00:24:16;2.47;;;2.27;;
11837;SDS011;5978;51.020;6.764;2022-12-20T00:26:41;2.37;;;2.17;;
11837;SDS011;5978;51.020;6.764;2022-12-20T00:29:07;2.80;;;2.40;;
11837;SDS011;5978;51.020;6.764;2022-12-20T00:31:33;2.70;;;2.40;;
11837;SDS011;5978;51.020;6.764;2022-12-20T00:33:59;2.63;;;2.42;;
11837;SDS011;5978;51.020;6.764;2022-12-20T00:36:26;4.30;;;1.97;;
11837;SDS011;5978;51.020;6.764;2022-12-20T00:38:54;2.90;;;2.70;;
11837;SDS011;5978;51.020;6.764;2022-12-20T00:41:25;3.65;;;2.20;;
11837;SDS011;5978;51.020;6.764;2022-12-20T00:43:52;3.53;;;3.20;;
11837;SDS011;5978;51.020;6.764;2022-12-20T00:46:18;5.50;;;2.83;;
11837;SDS011;5978;51.020;6.764;2022-12-20T00:48:47;3.73;;;2.77;;
11837;SDS011;5978;51.020;6.764;2022-12-20T00:51:14;3.20;;;2.50;;
11837;SDS011;5978;51.020;6.764;2022-12-20T00:53:41;3.15;;;2.70;;
11837;SDS011;5978;51.020;6.764;2022-12-20T00:56:08;3.88;;;2.83;;
11837;SDS011;5978;51.020;6.764;2022-12-20T00:58:35;3.47;;;2.70;;
11837;SDS011;5978;51.020;6.764;2022-12-20T01:01:02;3.63;;;2.85;;
11837;SDS011;5978;51.020;6.764;2022-12-20T01:03:29;2.78;;;2.50;;
11837;SDS011;5978;51.020;6.764;2022-12-20T01:05:57;6.78;;;2.72;;
11837;SDS011;5978;51.020;6.764;2022-12-20T01:08:24;4.22;;;2.67;;
11837;SDS011;5978;51.020;6.764;2022-12-20T01:13:37;3.38;;;3.10;;
11837;SDS011;5978;51.020;6.764;2022-12-20T01:16:11;2.53;;;2.33;;
11837;SDS011;5978;51.020;6.764;2022-12-20T01:18:39;3.53;;;3.20;;
11837;SDS011;5978;51.020;6.764;2022-12-20T01:21:06;5.90;;;3.15;;
11837;SDS011;5978;51.020;6.764;2022-12-20T01:23:34;2.85;;;2.55;;
11837;SDS011;5978;51.020;6.764;2022-12-20T01:26:00;3.08;;;2.75;;
11837;SDS011;5978;51.020;6.764;2022-12-20T01:28:28;5.30;;;2.97;;
11837;SDS011;5978;51.020;6.764;2022-12-20T01:30:55;8.52;;;2.85;;
11837;SDS011;5978;51.020;6.764;2022-12-20T01:33:20;4.60;;;2.63;;
11837;SDS011;5978;51.020;6.764;2022-12-20T01:35:56;4.20;;;3.07;;
11837;SDS011;5978;51.020;6.764;2022-12-20T01:38:23;3.38;;;2.90;;
11837;SDS011;5978;51.020;6.764;2022-12-20T01:40:49;5.83;;;3.50;;
11837;SDS011;5978;51.020;6.764;2022-12-20T01:43:15;3.23;;;2.83;;
11837;SDS011;5978;51.020;6.764;2022-12-20T01:45:42;4.07;;;2.60;;
11837;SDS011;5978;51.020;6.764;2022-12-20T01:48:08;4.33;;;3.40;;
11837;SDS011;5978;51.020;6.764;2022-12-20T01:50:34;3.77;;;3.37;;
11837;SDS011;5978;51.020;6.764;2022-12-20T01:53:00;3.33;;;3.03;;
11837;SDS011;5978;51.020;6.764;2022-12-20T01:55:28;7.93;;;3.30;;
11837;SDS011;5978;51.020;6.764;2022-12-20T01:57:58;4.50;;;3.25;;
11837;SDS011;5978;51.020;6.764;2022-12-20T02:00:28;2.85;;;2.65;;
11837;SDS011;5978;51.020;6.764;2022-12-20T02:02:54;4.30;;;3.30;;
11837;SDS011;5978;51.020;6.764;2022-12-20T02:05:24;3.30;;;3.00;;
11837;SDS011;5978;51.020;6.764;2022-12-20T02:07:51;4.33;;;3.33;;
11837;SDS011;5978;51.020;6.764;2022-12-20T02:10:20;5.35;;;3.05;;
11837;SDS011;5978;51.020;6.764;2022-12-20T02:12:48;4.95;;;3.58;;
11837;SDS011;5978;51.020;6.764;2022-12-20T02:18:01;6.45;;;3.60;;
11837;SDS011;5978;51.020;6.764;2022-12-20T02:31:39;4.90;;;3.70;;
11837;SDS011;5978;51.020;6.764;2022-12-20T02:34:09;4.53;;;4.13;;
11837;SDS011;5978;51.020;6.764;2022-12-20T02:36:36;5.05;;;4.13;;
11837;SDS011;5978;51.020;6.764;2022-12-20T02:39:03;8.45;;;4.50;;
11837;SDS011;5978;51.020;6.764;2022-12-20T02:41:30;6.50;;;4.10;;
11837;SDS011;5978;51.020;6.764;2022-12-20T02:44:04;6.72;;;4.70;;
11837;SDS011;5978;51.020;6.764;2022-12-20T02:46:54;5.10;;;4.45;;
11837;SDS011;5978;51.020;6.764;2022-12-20T02:49:22;10.40;;;5.72;;
11837;SDS011;5978;51.020;6.764;2022-12-20T02:51:51;6.72;;;5.05;;
11837;SDS011;5978;51.020;6.764;2022-12-20T02:54:19;6.85;;;4.65;;
11837;SDS011;5978;51.020;6.764;2022-12-20T02:56:53;7.13;;;4.50;;
11837;SDS011;5978;51.020;6.764;2022-12-20T02:59:54;6.13;;;4.72;;
11837;SDS011;5978;51.020;6.764;2022-12-20T03:02:25;7.25;;;4.63;;
11837;SDS011;5978;51.020;6.764;2022-12-20T03:04:52;7.05;;;5.32;;
11837;SDS011;5978;51.020;6.764;2022-12-20T03:07:18;6.38;;;4.68;;
11837;SDS011;5978;51.020;6.764;2022-12-20T03:09:43;5.60;;;4.60;;
11837;SDS011;5978;51.020;6.764;2022-12-20T03:12:10;6.20;;;4.85;;
11837;SDS011;5978;51.020;6.764;2022-12-20T03:14:37;6.55;;;5.90;;
11837;SDS011;5978;51.020;6.764;2022-12-20T03:17:03;7.00;;;5.25;;
11837;SDS011;5978;51.020;6.764;2022-12-20T03:19:29;7.38;;;5.53;;
11837;SDS011;5978;51.020;6.764;2022-12-20T03:21:55;7.20;;;5.10;;
11837;SDS011;5978;51.020;6.764;2022-12-20T03:24:21;7.10;;;4.63;;
11837;SDS011;5978;51.020;6.764;2022-12-20T03:26:46;5.80;;;5.20;;
11837;SDS011;5978;51.020;6.764;2022-12-20T03:29:12;8.20;;;5.63;;
11837;SDS011;5978;51.020;6.764;2022-12-20T03:31:38;9.17;;;5.70;;
11837;SDS011;5978;51.020;6.764;2022-12-20T03:34:03;6.97;;;5.60;;
11837;SDS011;5978;51.020;6.764;2022-12-20T03:36:30;12.23;;;4.87;;
11837;SDS011;5978;51.020;6.764;2022-12-20T03:38:55;9.60;;;6.23;;
11837;SDS011;5978;51.020;6.764;2022-12-20T03:41:21;6.93;;;6.23;;
11837;SDS011;5978;51.020;6.764;2022-12-20T03:43:47;6.90;;;5.68;;
11837;SDS011;5978;51.020;6.764;2022-12-20T03:46:13;7.70;;;6.10;;
11837;SDS011;5978;51.020;6.764;2022-12-20T03:48:39;11.02;;;5.80;;
11837;SDS011;5978;51.020;6.764;2022-12-20T03:51:05;10.00;;;7.13;;
11837;SDS011;5978;51.020;6.764;2022-12-20T03:53:31;8.10;;;5.93;;
11837;SDS011;5978;51.020;6.764;2022-12-20T03:55:56;6.33;;;5.60;;
11837;SDS011;5978;51.020;6.764;2022-12-20T03:58:22;9.30;;;5.37;;
11837;SDS011;5978;51.020;6.764;2022-12-20T04:00:48;9.13;;;6.10;;
11837;SDS011;5978;51.020;6.764;2022-12-20T04:03:13;9.63;;;6.20;;
11837;SDS011;5978;51.020;6.764;2022-12-20T04:05:39;7.90;;;5.23;;
11837;SDS011;5978;51.020;6.764;2022-12-20T04:08:05;12.10;;;5.60;;
11837;SDS011;5978;51.020;6.764;2022-12-20T04:10:30;5.63;;;4.95;;
11837;SDS011;5978;51.020;6.764;2022-12-20T04:12:56;9.73;;;5.50;;
11837;SDS011;5978;51.020;6.764;2022-12-20T04:15:21;7.10;;;4.90;;
11837;SDS011;5978;51.020;6.764;2022-12-20T04:17:47;6.30;;;4.97;;
11837;SDS011;5978;51.020;6.764;2022-12-20T04:20:13;8.33;;;5.80;;
11837;SDS011;5978;51.020;6.764;2022-12-20T04:22:46;6.35;;;5.10;;
11837;SDS011;5978;51.020;6.764;2022-12-20T04:25:13;6.25;;;5.15;;
11837;SDS011;5978;51.020;6.764;2022-12-20T04:27:39;5.95;;;4.95;;
11837;SDS011;5978;51.020;6.764;2022-12-20T04:30:05;8.40;;;5.73;;
11837;SDS011;5978;51.020;6.764;2022-12-20T04:32:31;9.57;;;6.03;;
11837;SDS011;5978;51.020;6.764;2022-12-20T04:34:56;8.30;;;6.73;;
11837;SDS011;5978;51.020;6.764;2022-12-20T04:37:22;12.50;;;6.03;;
11837;SDS011;5978;51.020;6.764;2022-12-20T04:39:47;8.20;;;6.87;;
11837;SDS011;5978;51.020;6.764;2022-12-20T04:42:13;11.00;;;6.37;;
11837;SDS011;5978;51.020;6.764;2022-12-20T04:44:38;8.07;;;6.57;;
11837;SDS011;5978;51.020;6.764;2022-12-20T04:47:04;7.83;;;5.73;;
11837;SDS011;5978;51.020;6.764;2022-12-20T04:49:29;10.40;;;5.83;;
11837;SDS011;5978;51.020;6.764;2022-12-20T04:51:55;9.70;;;7.20;;
11837;SDS011;5978;51.020;6.764;2022-12-20T04:54:40;11.55;;;7.25;;
11837;SDS011;5978;51.020;6.764;2022-12-20T04:57:06;7.83;;;7.03;;
11837;SDS011;5978;51.020;6.764;2022-12-20T04:59:33;6.57;;;5.93;;
11837;SDS011;5978;51.020;6.764;2022-12-20T05:01:59;6.23;;;5.70;;
11837;SDS011;5978;51.020;6.764;2022-12-20T05:04:25;8.57;;;6.27;;
11837;SDS011;5978;51.020;6.764;2022-12-20T05:06:50;9.37;;;6.67;;
11837;SDS011;5978;51.020;6.764;2022-12-20T05:09:16;7.97;;;6.50;;
11837;SDS011;5978;51.020;6.764;2022-12-20T05:11:41;11.43;;;7.50;;
11837;SDS011;5978;51.020;6.764;2022-12-20T05:14:07;10.90;;;6.10;;
11837;SDS011;5978;51.020;6.764;2022-12-20T05:16:32;10.83;;;6.60;;
11837;SDS011;5978;51.020;6.764;2022-12-20T05:18:58;6.30;;;5.70;;
11837;SDS011;5978;51.020;6.764;2022-12-20T05:21:23;8.07;;;6.60;;
11837;SDS011;5978;51.020;6.764;2022-12-20T05:24:08;9.05;;;6.70;;
11837;SDS011;5978;51.020;6.764;2022-12-20T05:26:52;11.13;;;8.90;;
11837;SDS011;5978;51.020;6.764;2022-12-20T05:29:18;6.70;;;6.10;;
11837;SDS011;5978;51.020;6.764;2022-12-20T05:31:44;11.90;;;6.73;;
11837;SDS011;5978;51.020;6.764;2022-12-20T05:34:09;14.97;;;8.07;;
11837;SDS011;5978;51.020;6.764;2022-12-20T05:36:35;9.23;;;6.87;;
11837;SDS011;5978;51.020;6.764;2022-12-20T05:39:00;12.97;;;6.70;;
11837;SDS011;5978;51.020;6.764;2022-12-20T05:41:26;10.83;;;6.90;;
11837;SDS011;5978;51.020;6.764;2022-12-20T05:43:51;8.33;;;7.20;;
11837;SDS011;5978;51.020;6.764;2022-12-20T05:46:17;10.43;;;6.63;;
11837;SDS011;5978;51.020;6.764;2022-12-20T05:48:42;7.43;;;5.73;;
11837;SDS011;5978;51.020;6.764;2022-12-20T05:51:08;11.03;;;7.27;;
11837;SDS011;5978;51.020;6.764;2022-12-20T05:53:33;10.03;;;7.93;;
11837;SDS011;5978;51.020;6.764;2022-12-20T05:55:59;10.73;;;6.80;;
11837;SDS011;5978;51.020;6.764;2022-12-20T05:58:25;8.07;;;7.38;;
11837;SDS011;5978;51.020;6.764;2022-12-20T06:00:51;12.60;;;7.30;;
11837;SDS011;5978;51.020;6.764;2022-12-20T06:03:16;11.90;;;6.77;;
11837;SDS011;5978;51.020;6.764;2022-12-20T06:05:42;9.00;;;6.87;;
11837;SDS011;5978;51.020;6.764;2022-12-20T06:08:09;7.60;;;6.75;;
11837;SDS011;5978;51.020;6.764;2022-12-20T06:10:35;9.40;;;7.32;;
11837;SDS011;5978;51.020;6.764;2022-12-20T06:13:01;9.47;;;6.40;;
11837;SDS011;5978;51.020;6.764;2022-12-20T06:15:28;7.97;;;5.60;;
11837;SDS011;5978;51.020;6.764;2022-12-20T06:17:54;12.15;;;7.53;;
11837;SDS011;5978;51.020;6.764;2022-12-20T06:20:20;8.17;;;6.70;;
11837;SDS011;5978;51.020;6.764;2022-12-20T06:22:46;7.20;;;6.13;;
11837;SDS011;5978;51.020;6.764;2022-12-20T06:25:12;7.20;;;5.97;;
11837;SDS011;5978;51.020;6.764;2022-12-20T06:27:39;7.47;;;5.80;;
11837;SDS011;5978;51.020;6.764;2022-12-20T06:30:06;6.40;;;5.90;;
11837;SDS011;5978;51.020;6.764;2022-12-20T06:32:34;7.85;;;6.47;;
11837;SDS011;5978;51.020;6.764;2022-12-20T06:35:00;8.40;;;6.30;;
11837;SDS011;5978;51.020;6.764;2022-12-20T06:37:26;5.93;;;5.33;;
11837;SDS011;5978;51.020;6.764;2022-12-20T06:39:52;11.68;;;6.18;;
11837;SDS011;5978;51.020;6.764;2022-12-20T06:42:17;6.43;;;5.83;;
11837;SDS011;5978;51.020;6.764;2022-12-20T06:44:43;7.37;;;6.40;;
11837;SDS011;5978;51.020;6.764;2022-12-20T06:47:08;6.17;;;5.57;;
11837;SDS011;5978;51.020;6.764;2022-12-20T06:49:34;9.60;;;5.73;;
11837;SDS011;5978;51.020;6.764;2022-12-20T06:51:59;6.73;;;5.93;;
11837;SDS011;5978;51.020;6.764;2022-12-20T06:54:25;11.00;;;6.20;;
11837;SDS011;5978;51.020;6.764;2022-12-20T06:56:51;9.30;;;6.67;;
11837;SDS011;5978;51.020;6.764;2022-12-20T06:59:16;11.60;;;6.70;;
11837;SDS011;5978;51.020;6.764;2022-12-20T07:01:42;7.37;;;6.50;;
11837;SDS011;5978;51.020;6.764;2022-12-20T07:04:08;9.30;;;6.50;;
11837;SDS011;5978;51.020;6.764;2022-12-20T07:06:34;6.07;;;5.47;;
11837;SDS011;5978;51.020;6.764;2022-12-20T07:08:59;15.43;;;6.80;;
11837;SDS011;5978;51.020;6.764;2022-12-20T07:11:25;8.43;;;6.00;;
11837;SDS011;5978;51.020;6.764;2022-12-20T07:13:53;6.23;;;5.63;;
11837;SDS011;5978;51.020;6.764;2022-12-20T07:16:20;7.15;;;6.40;;
11837;SDS011;5978;51.020;6.764;2022-12-20T07:18:49;8.73;;;6.60;;
11837;SDS011;5978;51.020;6.764;2022-12-20T07:21:16;9.52;;;6.55;;
11837;SDS011;5978;51.020;6.764;2022-12-20T07:23:43;8.35;;;5.97;;
11837;SDS011;5978;51.020;6.764;2022-12-20T07:26:09;6.10;;;5.53;;
11837;SDS011;5978;51.020;6.764;2022-12-20T07:28:35;10.27;;;5.80;;
11837;SDS011;5978;51.020;6.764;2022-12-20T07:31:01;7.50;;;5.60;;
11837;SDS011;5978;51.020;6.764;2022-12-20T07:33:27;7.07;;;5.95;;
11837;SDS011;5978;51.020;6.764;2022-12-20T07:36:00;9.55;;;6.25;;
11837;SDS011;5978;51.020;6.764;2022-12-20T07:38:27;7.00;;;6.10;;
11837;SDS011;5978;51.020;6.764;2022-12-20T07:40:53;8.18;;;6.05;;
11837;SDS011;5978;51.020;6.764;2022-12-20T07:43:18;8.37;;;6.90;;
11837;SDS011;5978;51.020;6.764;2022-12-20T07:45:44;8.47;;;6.67;;
11837;SDS011;5978;51.020;6.764;2022-12-20T07:48:11;9.80;;;6.78;;
11837;SDS011;5978;51.020;6.764;2022-12-20T07:50:37;9.02;;;6.60;;
11837;SDS011;5978;51.020;6.764;2022-12-20T07:53:04;8.52;;;6.35;;
11837;SDS011;5978;51.020;6.764;2022-12-20T07:55:31;7.75;;;6.80;;
11837;SDS011;5978;51.020;6.764;2022-12-20T07:57:59;7.95;;;6.28;;
11837;SDS011;5978;51.020;6.764;2022-12-20T08:00:28;8.75;;;6.50;;
11837;SDS011;5978;51.020;6.764;2022-12-20T08:02:57;6.43;;;5.57;;
11837;SDS011;5978;51.020;6.764;2022-12-20T08:05:28;9.65;;;6.80;;
11837;SDS011;5978;51.020;6.764;2022-12-20T08:07:54;7.30;;;6.20;;
11837;SDS011;5978;51.020;6.764;2022-12-20T08:10:22;13.50;;;7.57;;
11837;SDS011;5978;51.020;6.764;2022-12-20T08:12:48;8.87;;;7.30;;
11837;SDS011;5978;51.020;6.764;2022-12-20T08:15:14;8.25;;;6.40;;
11837;SDS011;5978;51.020;6.764;2022-12-20T08:17:40;8.80;;;7.30;;
11837;SDS011;5978;51.020;6.764;2022-12-20T08:20:05;8.10;;;6.17;;
11837;SDS011;5978;51.020;6.764;2022-12-20T08:22:32;6.60;;;6.00;;
11837;SDS011;5978;51.020;6.764;2022-12-20T08:24:58;9.20;;;6.90;;
11837;SDS011;5978;51.020;6.764;2022-12-20T08:27:24;6.80;;;6.20;;
11837;SDS011;5978;51.020;6.764;2022-12-20T08:29:50;13.70;;;6.53;;
11837;SDS011;5978;51.020;6.764;2022-12-20T08:32:15;7.10;;;6.40;;
11837;SDS011;5978;51.020;6.764;2022-12-20T08:34:41;7.07;;;6.13;;
11837;SDS011;5978;51.020;6.764;2022-12-20T08:37:06;6.97;;;6.27;;
11837;SDS011;5978;51.020;6.764;2022-12-20T08:39:32;10.40;;;6.23;;
11837;SDS011;5978;51.020;6.764;2022-12-20T08:41:57;8.00;;;7.20;;
11837;SDS011;5978;51.020;6.764;2022-12-20T08:44:23;7.60;;;6.47;;
11837;SDS011;5978;51.020;6.764;2022-12-20T08:46:49;8.43;;;5.47;;
11837;SDS011;5978;51.020;6.764;2022-12-20T08:49:15;10.03;;;5.67;;
11837;SDS011;5978;51.020;6.764;2022-12-20T08:51:40;8.67;;;6.20;;
11837;SDS011;5978;51.020;6.764;2022-12-20T08:54:06;7.83;;;6.70;;
11837;SDS011;5978;51.020;6.764;2022-12-20T08:56:32;7.13;;;6.30;;
11837;SDS011;5978;51.020;6.764;2022-12-20T08:58:58;10.87;;;5.80;;
11837;SDS011;5978;51.020;6.764;2022-12-20T09:01:24;9.20;;;6.30;;
11837;SDS011;5978;51.020;6.764;2022-12-20T09:03:51;6.40;;;5.20;;
11837;SDS011;5978;51.020;6.764;2022-12-20T09:06:18;10.30;;;5.73;;
11837;SDS011;5978;51.020;6.764;2022-12-20T09:08:45;13.15;;;6.00;;
11837;SDS011;5978;51.020;6.764;2022-12-20T09:13:42;7.90;;;5.20;;
11837;SDS011;5978;51.020;6.764;2022-12-20T09:16:08;8.73;;;5.65;;
11837;SDS011;5978;51.020;6.764;2022-12-20T09:18:35;6.75;;;4.80;;
11837;SDS011;5978;51.020;6.764;2022-12-20T09:21:01;7.57;;;5.63;;
11837;SDS011;5978;51.020;6.764;2022-12-20T09:23:28;7.65;;;6.38;;
11837;SDS011;5978;51.020;6.764;2022-12-20T09:25:55;6.03;;;4.90;;
11837;SDS011;5978;51.020;6.764;2022-12-20T09:28:27;8.07;;;5.78;;
11837;SDS011;5978;51.020;6.764;2022-12-20T09:30:56;9.87;;;6.33;;
11837;SDS011;5978;51.020;6.764;2022-12-20T09:33:26;7.07;;;5.97;;
11837;SDS011;5978;51.020;6.764;2022-12-20T09:35:52;13.40;;;5.70;;
11837;SDS011;5978;51.020;6.764;2022-12-20T09:38:18;8.50;;;5.70;;
11837;SDS011;5978;51.020;6.764;2022-12-20T09:40:46;11.17;;;6.27;;
11837;SDS011;5978;51.020;6.764;2022-12-20T09:43:15;7.25;;;5.95;;
11837;SDS011;5978;51.020;6.764;2022-12-20T09:45:41;6.75;;;5.35;;
11837;SDS011;5978;51.020;6.764;2022-12-20T09:48:13;6.65;;;4.78;;
11837;SDS011;5978;51.020;6.764;2022-12-20T09:50:55;7.53;;;5.32;;
11837;SDS011;5978;51.020;6.764;2022-12-20T09:53:29;13.63;;;6.40;;
11837;SDS011;5978;51.020;6.764;2022-12-20T09:56:15;10.83;;;6.43;;
11837;SDS011;5978;51.020;6.764;2022-12-20T09:59:03;8.60;;;5.90;;
11837;SDS011;5978;51.020;6.764;2022-12-20T10:01:36;10.20;;;5.57;;
11837;SDS011;5978;51.020;6.764;2022-12-20T10:04:04;7.13;;;5.20;;
11837;SDS011;5978;51.020;6.764;2022-12-20T10:22:56;6.10;;;4.77;;
11837;SDS011;5978;51.020;6.764;2022-12-20T10:25:47;6.43;;;5.10;;
11837;SDS011;5978;51.020;6.764;2022-12-20T10:28:18;7.63;;;4.47;;
11837;SDS011;5978;51.020;6.764;2022-12-20T10:30:49;8.77;;;4.75;;
11837;SDS011;5978;51.020;6.764;2022-12-20T10:33:18;5.10;;;4.60;;
11837;SDS011;5978;51.020;6.764;2022-12-20T10:35:45;6.77;;;4.67;;
11837;SDS011;5978;51.020;6.764;2022-12-20T10:38:12;7.00;;;5.00;;
11837;SDS011;5978;51.020;6.764;2022-12-20T10:40:46;6.17;;;5.10;;
11837;SDS011;5978;51.020;6.764;2022-12-20T10:43:25;7.13;;;5.30;;
11837;SDS011;5978;51.020;6.764;2022-12-20T10:45:59;6.33;;;5.03;;
11837;SDS011;5978;51.020;6.764;2022-12-20T10:48:29;4.97;;;4.53;;
11837;SDS011;5978;51.020;6.764;2022-12-20T10:53:29;7.33;;;4.80;;
11837;SDS011;5978;51.020;6.764;2022-12-20T10:56:14;9.13;;;4.83;;
11837;SDS011;5978;51.020;6.764;2022-12-20T10:58:52;7.50;;;4.43;;
11837;SDS011;5978;51.020;6.764;2022-12-20T11:01:27;5.77;;;4.87;;
11837;SDS011;5978;51.020;6.764;2022-12-20T11:04:02;7.33;;;5.20;;
11837;SDS011;5978;51.020;6.764;2022-12-20T11:06:42;5.83;;;5.23;;
11837;SDS011;5978;51.020;6.764;2022-12-20T11:09:28;8.23;;;5.17;;
11837;SDS011;5978;51.020;6.764;2022-12-20T11:14:37;6.00;;;5.00;;
11837;SDS011;5978;51.020;6.764;2022-12-20T11:28:04;16.10;;;5.33;;
11837;SDS011;5978;51.020;6.764;2022-12-20T11:30:57;7.03;;;5.17;;
11837;SDS011;5978;51.020;6.764;2022-12-20T11:42:01;7.00;;;4.57;;
11837;SDS011;5978;51.020;6.764;2022-12-20T11:45:08;6.43;;;5.87;;
11837;SDS011;5978;51.020;6.764;2022-12-20T11:53:42;4.43;;;4.10;;
11837;SDS011;5978;51.020;6.764;2022-12-20T11:55:52;6.43;;;4.50;;
11837;SDS011;5978;51.020;6.764;2022-12-20T12:05:56;4.20;;;3.30;;
11837;SDS011;5978;51.020;6.764;2022-12-20T12:08:40;3.77;;;2.20;;
11837;SDS011;5978;51.020;6.764;2022-12-20T12:11:24;3.50;;;1.73;;
11837;SDS011;5978;51.020;6.764;2022-12-20T12:13:55;4.40;;;2.20;;
11837;SDS011;5978;51.020;6.764;2022-12-20T12:16:26;2.40;;;2.23;;
11837;SDS011;5978;51.020;6.764;2022-12-20T12:18:59;2.37;;;2.10;;
11837;SDS011;5978;51.020;6.764;2022-12-20T12:21:27;3.20;;;2.20;;
11837;SDS011;5978;51.020;6.764;2022-12-20T12:26:43;3.67;;;2.30;;
11837;SDS011;5978;51.020;6.764;2022-12-20T12:31:52;6.40;;;3.13;;
11837;SDS011;5978;51.020;6.764;2022-12-20T12:45:14;2.70;;;2.50;;
11837;SDS011;5978;51.020;6.764;2022-12-20T12:50:22;2.40;;;2.20;;
11837;SDS011;5978;51.020;6.764;2022-12-20T12:52:53;2.30;;;2.10;;
11837;SDS011;5978;51.020;6.764;2022-12-20T12:58:13;3.67;;;2.20;;
11837;SDS011;5978;51.020;6.764;2022-12-20T13:00:55;3.93;;;1.80;;
11837;SDS011;5978;51.020;6.764;2022-12-20T13:04:08;3.53;;;2.17;;
11837;SDS011;5978;51.020;6.764;2022-12-20T13:11:28;2.47;;;2.27;;
11837;SDS011;5978;51.020;6.764;2022-12-20T13:16:42;5.40;;;3.40;;
11837;SDS011;5978;51.020;6.764;2022-12-20T13:19:14;6.03;;;3.23;;
11837;SDS011;5978;51.020;6.764;2022-12-20T13:21:41;4.10;;;3.10;;
11837;SDS011;5978;51.020;6.764;2022-12-20T13:29:50;6.40;;;4.13;;
11837;SDS011;5978;51.020;6.764;2022-12-20T13:37:50;4.30;;;3.50;;
11837;SDS011;5978;51.020;6.764;2022-12-20T13:40:24;4.80;;;3.87;;
11837;SDS011;5978;51.020;6.764;2022-12-20T13:45:48;7.43;;;4.40;;
11837;SDS011;5978;51.020;6.764;2022-12-20T13:48:27;6.67;;;4.40;;
11837;SDS011;5978;51.020;6.764;2022-12-20T13:51:17;5.90;;;4.63;;
11837;SDS011;5978;51.020;6.764;2022-12-20T13:53:57;6.13;;;4.37;;
11837;SDS011;5978;51.020;6.764;2022-12-20T14:01:48;9.67;;;4.63;;
11837;SDS011;5978;51.020;6.764;2022-12-20T14:04:16;8.20;;;4.53;;
11837;SDS011;5978;51.020;6.764;2022-12-20T14:06:43;7.93;;;4.60;;
11837;SDS011;5978;51.020;6.764;2022-12-20T14:12:18;4.90;;;4.27;;
11837;SDS011;5978;51.020;6.764;2022-12-20T14:14:45;7.63;;;4.70;;
11837;SDS011;5978;51.020;6.764;2022-12-20T14:17:28;9.40;;;5.27;;
11837;SDS011;5978;51.020;6.764;2022-12-20T14:20:11;11.73;;;6.20;;
11837;SDS011;5978;51.020;6.764;2022-12-20T14:22:40;7.77;;;6.33;;
11837;SDS011;5978;51.020;6.764;2022-12-20T14:25:10;10.80;;;5.60;;
11837;SDS011;5978;51.020;6.764;2022-12-20T14:27:40;9.30;;;4.50;;
11837;SDS011;5978;51.020;6.764;2022-12-20T14:30:06;8.87;;;4.47;;
11837;SDS011;5978;51.020;6.764;2022-12-20T14:32:49;5.90;;;4.20;;
11837;SDS011;5978;51.020;6.764;2022-12-20T14:35:18;7.90;;;4.40;;
11837;SDS011;5978;51.020;6.764;2022-12-20T14:37:51;7.57;;;4.87;;
11837;SDS011;5978;51.020;6.764;2022-12-20T14:40:19;6.17;;;5.57;;
11837;SDS011;5978;51.020;6.764;2022-12-20T14:42:45;6.00;;;5.20;;
11837;SDS011;5978;51.020;6.764;2022-12-20T14:45:16;9.20;;;5.93;;
11837;SDS011;5978;51.020;6.764;2022-12-20T14:47:55;9.23;;;5.40;;
11837;SDS011;5978;51.020;6.764;2022-12-20T14:50:28;6.63;;;5.63;;
11837;SDS011;5978;51.020;6.764;2022-12-20T14:52:58;16.90;;;6.97;;
11837;SDS011;5978;51.020;6.764;2022-12-20T14:55:27;9.17;;;6.70;;
11837;SDS011;5978;51.020;6.764;2022-12-20T14:57:55;12.60;;;6.93;;
11837;SDS011;5978;51.020;6.764;2022-12-20T15:08:13;11.17;;;7.30;;
11837;SDS011;5978;51.020;6.764;2022-12-20T15:10:54;12.47;;;7.37;;
11837;SDS011;5978;51.020;6.764;2022-12-20T15:15:59;15.53;;;7.50;;
11837;SDS011;5978;51.020;6.764;2022-12-20T15:18:26;18.40;;;7.87;;
11837;SDS011;5978;51.020;6.764;2022-12-20T15:23:44;14.17;;;8.37;;
11837;SDS011;5978;51.020;6.764;2022-12-20T15:26:20;18.87;;;10.50;;
11837;SDS011;5978;51.020;6.764;2022-12-20T15:28:47;9.33;;;7.77;;
11837;SDS011;5978;51.020;6.764;2022-12-20T15:31:13;11.70;;;8.00;;
11837;SDS011;5978;51.020;6.764;2022-12-20T15:33:41;10.17;;;7.93;;
11837;SDS011;5978;51.020;6.764;2022-12-20T15:36:15;11.50;;;7.33;;
11837;SDS011;5978;51.020;6.764;2022-12-20T15:38:43;12.00;;;7.90;;
11837;SDS011;5978;51.020;6.764;2022-12-20T15:41:12;15.37;;;9.47;;
11837;SDS011;5978;51.020;6.764;2022-12-20T15:43:44;15.30;;;8.87;;
11837;SDS011;5978;51.020;6.764;2022-12-20T15:46:10;16.03;;;9.63;;
11837;SDS011;5978;51.020;6.764;2022-12-20T15:48:35;16.33;;;10.07;;
11837;SDS011;5978;51.020;6.764;2022-12-20T15:51:01;16.50;;;10.40;;
11837;SDS011;5978;51.020;6.764;2022-12-20T15:53:35;16.83;;;11.00;;
11837;SDS011;5978;51.020;6.764;2022-12-20T15:56:01;14.03;;;9.57;;
11837;SDS011;5978;51.020;6.764;2022-12-20T15:58:26;14.30;;;10.20;;
11837;SDS011;5978;51.020;6.764;2022-12-20T16:00:53;12.83;;;9.30;;
11837;SDS011;5978;51.020;6.764;2022-12-20T16:03:22;17.03;;;9.00;;
11837;SDS011;5978;51.020;6.764;2022-12-20T16:05:51;11.60;;;9.33;;
11837;SDS011;5978;51.020;6.764;2022-12-20T16:08:16;17.40;;;11.07;;
11837;SDS011;5978;51.020;6.764;2022-12-20T16:10:45;16.13;;;10.77;;
11837;SDS011;5978;51.020;6.764;2022-12-20T16:13:15;17.30;;;10.48;;
11837;SDS011;5978;51.020;6.764;2022-12-20T16:15:45;14.67;;;9.70;;
11837;SDS011;5978;51.020;6.764;2022-12-20T16:18:11;20.38;;;9.35;;
11837;SDS011;5978;51.020;6.764;2022-12-20T16:20:36;24.70;;;15.53;;
11837;SDS011;5978;51.020;6.764;2022-12-20T16:23:03;19.40;;;11.80;;
11837;SDS011;5978;51.020;6.764;2022-12-20T16:25:33;18.47;;;12.90;;
11837;SDS011;5978;51.020;6.764;2022-12-20T16:28:00;15.27;;;9.93;;
11837;SDS011;5978;51.020;6.764;2022-12-20T16:30:26;12.20;;;7.80;;
11837;SDS011;5978;51.020;6.764;2022-12-20T16:32:52;10.97;;;7.47;;
11837;SDS011;5978;51.020;6.764;2022-12-20T16:35:22;9.80;;;7.30;;
11837;SDS011;5978;51.020;6.764;2022-12-20T16:37:48;15.00;;;6.87;;
11837;SDS011;5978;51.020;6.764;2022-12-20T16:40:14;13.63;;;7.90;;
11837;SDS011;5978;51.020;6.764;2022-12-20T16:42:39;10.90;;;6.97;;
11837;SDS011;5978;51.020;6.764;2022-12-20T16:45:05;11.43;;;7.80;;
11837;SDS011;5978;51.020;6.764;2022-12-20T16:47:37;8.43;;;6.33;;
11837;SDS011;5978;51.020;6.764;2022-12-20T16:50:03;12.40;;;7.50;;
11837;SDS011;5978;51.020;6.764;2022-12-20T16:52:30;10.30;;;7.20;;
11837;SDS011;5978;51.020;6.764;2022-12-20T16:55:00;10.23;;;7.50;;
11837;SDS011;5978;51.020;6.764;2022-12-20T16:57:26;10.63;;;6.90;;
11837;SDS011;5978;51.020;6.764;2022-12-20T16:59:51;10.40;;;7.00;;
11837;SDS011;5978;51.020;6.764;2022-12-20T17:02:25;10.57;;;6.57;;
11837;SDS011;5978;51.020;6.764;2022-12-20T17:04:56;12.52;;;6.68;;
11837;SDS011;5978;51.020;6.764;2022-12-20T17:07:23;10.20;;;7.33;;
11837;SDS011;5978;51.020;6.764;2022-12-20T17:09:48;10.57;;;8.50;;
11837;SDS011;5978;51.020;6.764;2022-12-20T17:12:16;11.87;;;8.00;;
11837;SDS011;5978;51.020;6.764;2022-12-20T17:14:43;10.48;;;8.50;;
11837;SDS011;5978;51.020;6.764;2022-12-20T17:17:09;12.20;;;8.37;;
11837;SDS011;5978;51.020;6.764;2022-12-20T17:19:35;17.63;;;9.53;;
11837;SDS011;5978;51.020;6.764;2022-12-20T17:22:00;12.20;;;8.40;;
11837;SDS011;5978;51.020;6.764;2022-12-20T17:24:26;9.63;;;8.00;;